createdAt,value
2023-05-14T00:02:11.256Z,100360.22
2023-05-14T00:04:40.844Z,100356.81
2023-05-14T00:07:15.138Z,100364.66
2023-05-14T00:09:44.607Z,100352.56
2023-05-14T00:12:14.146Z,100350.84
2023-05-14T00:14:43.568Z,100354.38
2023-05-14T00:17:14.882Z,100359.56
2023-05-14T00:19:44.143Z,100353.59
2023-05-14T00:22:14.896Z,100323.56
2023-05-14T00:24:49.748Z,100368.28
2023-05-14T00:27:24.130Z,100362.22
2023-05-14T00:29:53.398Z,100369.19
2023-05-14T00:32:31.273Z,100372.69
2023-05-14T00:35:00.974Z,100367.53
2023-05-14T00:37:33.502Z,100316.03
2023-05-14T00:40:03.396Z,100363.28
2023-05-14T00:42:33.847Z,100363.31
2023-05-14T00:45:03.384Z,100374.56
2023-05-14T00:47:36.962Z,100357.31
2023-05-14T00:50:07.489Z,100371.94
2023-05-14T00:52:43.649Z,100377.22
2023-05-14T00:55:16.118Z,100351.28
2023-05-14T00:57:45.570Z,100365.13
2023-05-14T01:00:16.350Z,100372.91
2023-05-14T01:02:53.002Z,100369.47
2023-05-14T01:05:38.255Z,100375.59
2023-05-14T01:08:20.582Z,100381.59
2023-05-14T01:10:54.959Z,100389.41
2023-05-14T01:13:35.964Z,100387.69
2023-05-14T01:16:06.617Z,100367.00
2023-05-14T01:18:38.354Z,100385.09
2023-05-14T01:21:07.679Z,100381.63
2023-05-14T01:23:38.786Z,100367.00
2023-05-14T01:26:13.203Z,100367.00
2023-05-14T01:28:47.901Z,100388.59
2023-05-14T01:31:27.528Z,100380.91
2023-05-14T01:34:01.163Z,100385.19
2023-05-14T01:36:32.603Z,100375.69
2023-05-14T01:39:09.865Z,100392.13
2023-05-14T01:44:16.649Z,100406.78
2023-05-14T01:46:46.063Z,100389.47
2023-05-14T01:49:15.849Z,100390.34
2023-05-14T01:51:45.134Z,100405.88
2023-05-14T01:54:16.488Z,100402.41
2023-05-14T01:56:45.779Z,100400.72
2023-05-14T01:59:20.590Z,100416.25
2023-05-14T02:01:50.238Z,100401.53
2023-05-14T02:04:20.492Z,100404.13
2023-05-14T02:06:50.122Z,100429.22
2023-05-14T02:09:26.617Z,100398.94
2023-05-14T02:11:55.885Z,100407.59
2023-05-14T02:14:25.349Z,100381.75
2023-05-14T02:16:54.862Z,100421.41
2023-05-14T02:19:24.471Z,100417.94
2023-05-14T02:22:11.371Z,100408.44
2023-05-14T02:24:46.585Z,100410.19
2023-05-14T02:27:15.862Z,100414.50
2023-05-14T02:29:45.175Z,100428.31
2023-05-14T02:32:14.573Z,100432.66
2023-05-14T02:34:48.948Z,100405.91
2023-05-14T02:37:18.402Z,100402.44
2023-05-14T02:39:49.687Z,100415.38
2023-05-14T02:42:19.007Z,100437.00
2023-05-14T02:44:49.793Z,100421.47
2023-05-14T02:47:18.970Z,100408.50
2023-05-14T02:49:48.248Z,100428.41
2023-05-14T02:52:24.529Z,100424.97
2023-05-14T02:54:55.710Z,100440.50
2023-05-14T02:57:25.045Z,100434.44
2023-05-14T03:00:05.729Z,100418.00
2023-05-14T03:02:39.088Z,100440.50
2023-05-14T03:05:09.010Z,100462.91
2023-05-14T03:07:38.443Z,100443.97
2023-05-14T03:10:16.150Z,100441.38
2023-05-14T03:12:45.395Z,100401.63
2023-05-14T03:15:14.951Z,100437.88
2023-05-14T03:17:49.466Z,100425.00
2023-05-14T03:20:19.176Z,100475.88
2023-05-14T03:22:54.179Z,100444.78
2023-05-14T03:25:25.596Z,100437.84
2023-05-14T03:27:54.970Z,100456.81
2023-05-14T03:30:24.646Z,100461.09
2023-05-14T03:33:01.634Z,100478.38
2023-05-14T03:35:31.176Z,100468.84
2023-05-14T03:38:00.541Z,100460.97
2023-05-14T03:40:37.022Z,100471.22
2023-05-14T03:43:06.418Z,100469.44
2023-05-14T03:45:35.795Z,100474.44
2023-05-14T03:48:05.704Z,100453.53
2023-05-14T03:50:35.742Z,100461.19
2023-05-14T03:53:10.207Z,100453.38
2023-05-14T03:55:41.525Z,100500.16
2023-05-14T03:58:14.426Z,100489.75
2023-05-14T04:00:44.536Z,100479.31
2023-05-14T04:03:19.510Z,100473.94
2023-05-14T04:05:49.549Z,100490.31
2023-05-14T04:08:24.654Z,100488.66
2023-05-14T04:10:56.123Z,100497.25
2023-05-14T04:13:26.072Z,100478.97
2023-05-14T04:15:56.693Z,100487.53
2023-05-14T04:18:27.318Z,100469.94
2023-05-14T04:21:13.287Z,100465.34
2023-05-14T04:23:42.733Z,100485.22
2023-05-14T04:26:14.073Z,100487.31
2023-05-14T04:28:49.687Z,100492.09
2023-05-14T04:31:19.055Z,100480.06
2023-05-14T04:33:50.009Z,100474.00
2023-05-14T04:36:19.273Z,100491.16
2023-05-14T04:38:48.572Z,100487.53
2023-05-14T04:41:25.472Z,100489.91
2023-05-14T04:44:00.851Z,100491.59
2023-05-14T04:46:30.336Z,100483.41
2023-05-14T04:48:59.668Z,100474.00
2023-05-14T04:54:14.600Z,100486.50
2023-05-14T04:56:52.133Z,100502.97
2023-05-14T04:59:21.673Z,100501.94
2023-05-14T05:01:51.352Z,100489.59
2023-05-14T05:07:29.583Z,100494.59
2023-05-14T05:10:00.249Z,100490.50
2023-05-14T05:12:46.535Z,100492.19
2023-05-14T05:15:36.007Z,100487.97
2023-05-14T05:18:06.088Z,100479.41
2023-05-14T05:20:36.637Z,100481.19
2023-05-14T05:23:06.182Z,100495.38
2023-05-14T05:25:35.989Z,100477.03
2023-05-14T05:28:13.793Z,100491.91
2023-05-14T05:30:48.383Z,100491.03
2023-05-14T05:33:17.964Z,100496.22
2023-05-14T05:35:47.952Z,100490.03
2023-05-14T05:38:17.950Z,100491.72
2023-05-14T05:40:47.633Z,100494.22
2023-05-14T05:43:19.387Z,100485.47
2023-05-14T05:45:48.342Z,100483.59
2023-05-14T05:48:28.521Z,100472.41
2023-05-14T05:50:58.274Z,100470.69
2023-05-14T05:53:27.828Z,100475.00
2023-05-14T05:56:02.327Z,100482.81
2023-05-14T05:58:33.615Z,100469.78
2023-05-14T06:01:17.922Z,100472.34
2023-05-14T06:03:48.721Z,100465.38
2023-05-14T06:06:19.081Z,100450.53
2023-05-14T06:08:48.513Z,100463.50
2023-05-14T06:11:18.776Z,100457.41
2023-05-14T06:13:55.419Z,100461.50
2023-05-14T06:16:25.001Z,100480.53
2023-05-14T06:18:55.635Z,100469.06
2023-05-14T06:21:25.044Z,100485.47
2023-05-14T06:23:54.672Z,100488.69
2023-05-14T06:26:29.146Z,100460.81
2023-05-14T06:29:00.297Z,100473.66
2023-05-14T06:31:29.945Z,100470.69
2023-05-14T06:33:59.276Z,100451.59
2023-05-14T06:36:34.883Z,100475.06
2023-05-14T06:39:04.470Z,100464.47
2023-05-14T06:41:34.284Z,100463.56
2023-05-14T06:44:05.768Z,100480.59
2023-05-14T06:46:35.356Z,100462.84
2023-05-14T06:49:04.944Z,100464.50
2023-05-14T06:51:40.512Z,100445.34
2023-05-14T06:54:09.832Z,100450.81
2023-05-14T06:56:39.117Z,100352.81
2023-05-14T06:59:16.799Z,100445.66
2023-05-14T07:01:46.134Z,100435.84
2023-05-14T07:04:15.506Z,100466.88
2023-05-14T07:06:44.812Z,100466.66
2023-05-14T07:09:24.439Z,100473.88
2023-05-14T07:11:54.004Z,100460.44
2023-05-14T07:14:25.439Z,100487.97
2023-05-14T07:16:55.333Z,100469.94
2023-05-14T07:22:00.866Z,100482.75
2023-05-14T07:24:30.294Z,100475.28
2023-05-14T07:27:04.824Z,100468.50
2023-05-14T07:29:41.484Z,100482.22
2023-05-14T07:32:11.733Z,100480.91
2023-05-14T07:34:42.135Z,100496.66
2023-05-14T07:37:11.816Z,100491.41
2023-05-14T07:39:41.400Z,100490.25
2023-05-14T07:42:11.712Z,100462.81
2023-05-14T07:44:46.907Z,100490.41
2023-05-14T07:47:16.021Z,100475.97
2023-05-14T07:49:45.304Z,100486.88
2023-05-14T07:54:50.752Z,100496.28
2023-05-14T07:57:20.451Z,100452.25
2023-05-14T07:59:52.042Z,100487.44
2023-05-14T08:02:25.618Z,100482.31
2023-05-14T08:04:56.441Z,100491.59
2023-05-14T08:07:27.491Z,100485.72
2023-05-14T08:10:01.932Z,100491.78
2023-05-14T08:12:34.724Z,100496.00
2023-05-14T08:15:07.663Z,100503.31
2023-05-14T08:17:37.327Z,100486.88
2023-05-14T08:20:08.770Z,100507.00
2023-05-14T08:22:38.215Z,100503.28
2023-05-14T08:25:08.602Z,100503.75
2023-05-14T08:27:37.965Z,100482.06
2023-05-14T08:30:10.327Z,100499.44
2023-05-14T08:32:40.159Z,100489.66
2023-05-14T08:35:10.620Z,100502.16
2023-05-14T08:37:51.978Z,100498.22
2023-05-14T08:40:22.066Z,100480.38
2023-05-14T08:42:53.195Z,100490.03
2023-05-14T08:45:30.512Z,100485.88
2023-05-14T08:48:15.300Z,100441.97
2023-05-14T08:50:45.578Z,100498.09
2023-05-14T08:53:15.009Z,100484.94
2023-05-14T08:55:52.820Z,100492.22
2023-05-14T08:58:37.257Z,100469.84
2023-05-14T09:01:08.805Z,100487.34
2023-05-14T09:03:39.023Z,100485.16
2023-05-14T09:06:09.632Z,100489.72
2023-05-14T09:08:39.250Z,100483.78
2023-05-14T09:11:09.076Z,100493.63
2023-05-14T09:13:40.731Z,100443.78
2023-05-14T09:16:11.941Z,100463.72
2023-05-14T09:18:47.883Z,100493.63
2023-05-14T09:21:17.937Z,100480.53
2023-05-14T09:24:01.915Z,100482.19
2023-05-14T09:26:34.344Z,100483.22
2023-05-14T09:29:08.806Z,100452.88
2023-05-14T09:31:41.160Z,100456.19
2023-05-14T09:34:10.762Z,100468.66
2023-05-14T09:36:40.286Z,100504.94
2023-05-14T09:39:15.868Z,100493.13
2023-05-14T09:41:45.456Z,100481.97
2023-05-14T09:44:14.819Z,100493.38
2023-05-14T09:46:51.691Z,100443.41
2023-05-14T09:49:21.632Z,100466.56
2023-05-14T09:51:52.118Z,100478.03
2023-05-14T09:54:21.614Z,100475.44
2023-05-14T09:56:51.010Z,100459.97
2023-05-14T09:59:26.912Z,100466.97
2023-05-14T10:02:00.071Z,100487.66
2023-05-14T10:04:29.867Z,100478.97
2023-05-14T10:06:59.504Z,100477.56
2023-05-14T10:09:33.900Z,100469.78
2023-05-14T10:12:03.729Z,100423.53
2023-05-14T10:14:38.350Z,100444.28
2023-05-14T10:17:17.911Z,100463.06
2023-05-14T10:19:52.673Z,100431.09
2023-05-14T10:22:26.519Z,100439.47
2023-05-14T10:24:57.706Z,100463.63
2023-05-14T10:27:27.774Z,100450.84
2023-05-14T10:29:57.812Z,100472.84
2023-05-14T10:32:37.677Z,100446.56
2023-05-14T10:35:20.000Z,100474.06
2023-05-14T10:37:49.441Z,100462.84
2023-05-14T10:40:19.691Z,100468.38
2023-05-14T10:42:49.339Z,100453.47
2023-05-14T10:45:19.023Z,100452.69
2023-05-14T10:47:51.079Z,100457.69
2023-05-14T10:50:20.674Z,100404.25
2023-05-14T10:52:50.975Z,100444.72
2023-05-14T10:57:56.407Z,100428.75
2023-05-14T11:00:34.916Z,100445.69
2023-05-14T11:03:09.302Z,100463.69
2023-05-14T11:05:40.537Z,100453.53
2023-05-14T11:08:11.094Z,100425.00
2023-05-14T11:10:42.653Z,100455.78
2023-05-14T11:13:12.137Z,100446.91
2023-05-14T11:15:46.811Z,100393.78
2023-05-14T11:18:28.612Z,100433.03
2023-05-14T11:21:01.503Z,100418.09
2023-05-14T11:23:31.568Z,100464.19
2023-05-14T11:26:01.277Z,100470.19
2023-05-14T11:28:31.620Z,100442.19
2023-05-14T11:31:01.087Z,100459.50
2023-05-14T11:33:33.578Z,100451.94
2023-05-14T11:36:03.304Z,100453.91
2023-05-14T11:38:51.872Z,100449.59
2023-05-14T11:41:27.837Z,100440.97
2023-05-14T11:43:57.337Z,100455.88
2023-05-14T11:46:28.216Z,100455.63
2023-05-14T11:48:59.581Z,100459.63
2023-05-14T11:51:28.927Z,100453.66
2023-05-14T11:53:58.612Z,100441.13
2023-05-14T11:56:27.921Z,100475.91
2023-05-14T11:59:13.514Z,100473.00
2023-05-14T12:01:50.082Z,100450.38
2023-05-14T12:04:22.859Z,100413.69
2023-05-14T12:07:13.344Z,100462.44
2023-05-14T12:09:45.192Z,100440.44
2023-05-14T12:12:15.078Z,100423.75
2023-05-14T12:14:45.161Z,100460.81
2023-05-14T12:17:16.358Z,100463.63
2023-05-14T12:19:50.542Z,100445.91
2023-05-14T12:22:25.794Z,100431.59
2023-05-14T12:24:56.327Z,100452.81
2023-05-14T12:32:41.705Z,100413.38
2023-05-14T12:35:13.198Z,100460.75
2023-05-14T12:37:42.805Z,100418.59
2023-05-14T12:40:13.285Z,100444.88
2023-05-14T12:42:42.924Z,100459.34
2023-05-14T12:51:30.880Z,100440.72
2023-05-14T12:54:06.882Z,100423.19
2023-05-14T12:56:37.511Z,100462.59
2023-05-14T12:59:07.104Z,100449.44
2023-05-14T13:01:37.742Z,100454.47
2023-05-14T13:04:07.724Z,100453.47
2023-05-14T13:06:39.033Z,100453.56
2023-05-14T13:11:50.787Z,100464.72
2023-05-14T13:14:20.356Z,100456.44
2023-05-14T13:16:49.935Z,100468.63
2023-05-14T13:19:19.289Z,100467.81
2023-05-14T13:21:50.613Z,100467.78
2023-05-14T13:24:19.975Z,100471.69
2023-05-14T13:26:49.303Z,100459.69
2023-05-14T13:29:23.659Z,100453.16
2023-05-14T13:31:53.109Z,100459.91
2023-05-14T13:34:22.485Z,100457.25
2023-05-14T13:36:59.142Z,100424.16
2023-05-14T13:39:28.649Z,100436.44
2023-05-14T13:41:58.522Z,100468.09
2023-05-14T13:44:33.205Z,100457.34
2023-05-14T13:47:02.533Z,100433.66
2023-05-14T13:49:32.088Z,100452.28
2023-05-14T13:52:03.470Z,100448.63
2023-05-14T13:54:32.951Z,100460.38
2023-05-14T13:57:02.193Z,100460.78
2023-05-14T14:02:07.485Z,100463.50
2023-05-14T14:04:36.911Z,100438.22
2023-05-14T14:07:13.271Z,100466.59
2023-05-14T14:09:43.170Z,100456.03
2023-05-14T14:12:12.681Z,100403.84
2023-05-14T14:14:42.196Z,100456.28
2023-05-14T14:17:11.557Z,100454.41
2023-05-14T14:19:52.738Z,100470.09
2023-05-14T14:22:27.171Z,100460.50
2023-05-14T14:24:58.541Z,100472.94
2023-05-14T14:27:35.721Z,100479.41
2023-05-14T14:30:05.194Z,100466.78
2023-05-14T14:32:35.425Z,100473.84
2023-05-14T14:35:04.719Z,100441.63
2023-05-14T14:37:41.612Z,100456.59
2023-05-14T14:40:11.419Z,100456.38
2023-05-14T14:42:40.636Z,100451.97
2023-05-14T14:45:11.224Z,100440.78
2023-05-14T14:47:40.862Z,100487.91
2023-05-14T14:50:12.173Z,100465.44
2023-05-14T14:52:45.906Z,100476.56
2023-05-14T14:55:25.561Z,100456.69
2023-05-14T14:57:55.018Z,100472.91
2023-05-14T15:00:24.459Z,100429.03
2023-05-14T15:05:28.956Z,100468.19
2023-05-14T15:08:05.292Z,100470.97
2023-05-14T15:10:37.455Z,100452.97
2023-05-14T15:13:08.270Z,100456.97
2023-05-14T15:15:42.825Z,100462.13
2023-05-14T15:18:12.642Z,100452.28
2023-05-14T15:20:42.250Z,100452.72
2023-05-14T15:23:13.543Z,100452.34
2023-05-14T15:25:42.972Z,100463.78
2023-05-14T15:28:12.354Z,100434.03
2023-05-14T15:30:41.741Z,100470.03
2023-05-14T15:33:18.714Z,100471.53
2023-05-14T15:35:48.050Z,100452.38
2023-05-14T15:38:19.920Z,100444.63
2023-05-14T15:40:50.632Z,100422.13
2023-05-14T15:43:19.948Z,100468.44
2023-05-14T15:45:50.409Z,100458.66
2023-05-14T15:48:19.699Z,100438.53
2023-05-14T15:50:53.015Z,100464.84
2023-05-14T15:53:25.373Z,100453.66
2023-05-14T15:55:59.920Z,100476.44
2023-05-14T15:58:29.355Z,100446.94
2023-05-14T16:00:58.787Z,100464.78
2023-05-14T16:03:28.389Z,100472.84
2023-05-14T16:06:00.853Z,100471.00
2023-05-14T16:08:32.391Z,100460.69
2023-05-14T16:11:02.026Z,100463.31
2023-05-14T16:13:31.408Z,100459.09
2023-05-14T16:19:01.843Z,100444.94
2023-05-14T16:21:31.699Z,100478.91
2023-05-14T16:24:03.113Z,100454.44
2023-05-14T16:26:32.838Z,100453.72
2023-05-14T16:29:02.341Z,100457.13
2023-05-14T16:31:31.905Z,100413.72
2023-05-14T16:36:51.805Z,100434.91
2023-05-14T16:39:28.447Z,100470.78
2023-05-14T16:42:09.324Z,100489.88
2023-05-14T16:44:38.749Z,100490.56
2023-05-14T16:47:08.531Z,100471.84
2023-05-14T16:49:37.844Z,100478.25
2023-05-14T16:52:13.588Z,100488.22
2023-05-14T16:54:59.835Z,100477.84
2023-05-14T16:57:49.582Z,100524.16
2023-05-14T17:00:19.864Z,100493.31
2023-05-14T17:02:54.403Z,100496.16
2023-05-14T17:05:24.270Z,100490.41
2023-05-14T17:08:13.793Z,100478.28
2023-05-14T17:11:31.712Z,100500.41
2023-05-14T17:14:19.468Z,100494.53
2023-05-14T17:17:03.948Z,100513.72
2023-05-14T17:19:33.337Z,100486.09
2023-05-14T17:22:05.404Z,100504.44
2023-05-14T17:24:35.151Z,100505.34
2023-05-14T17:27:07.089Z,100492.38
2023-05-14T17:29:49.372Z,100492.50
2023-05-14T17:32:18.890Z,100516.84
2023-05-14T17:34:48.494Z,100503.00
2023-05-14T17:37:23.008Z,100529.91
2023-05-14T17:39:52.729Z,100500.53
2023-05-14T17:42:24.165Z,100521.31
2023-05-14T17:44:53.534Z,100530.03
2023-05-14T17:47:23.346Z,100524.84
2023-05-14T17:49:57.858Z,100522.25
2023-05-14T17:52:27.282Z,100497.16
2023-05-14T17:54:56.896Z,100543.06
2023-05-14T17:57:29.331Z,100492.06
2023-05-14T18:00:18.034Z,100537.94
2023-05-14T18:02:48.355Z,100531.97
2023-05-14T18:05:20.006Z,100541.50
2023-05-14T18:08:05.028Z,100531.97
2023-05-14T18:10:34.608Z,100543.34
2023-05-14T18:13:24.764Z,100545.13
2023-05-14T18:15:56.211Z,100527.03
2023-05-14T18:18:47.684Z,100557.34
2023-05-14T18:21:30.135Z,100551.38
2023-05-14T18:24:26.970Z,100548.75
2023-05-14T18:26:56.922Z,100533.25
2023-05-14T18:29:28.176Z,100547.94
2023-05-14T18:31:57.736Z,100522.09
2023-05-14T18:34:32.501Z,100542.78
2023-05-14T18:37:02.009Z,100523.03
2023-05-14T18:39:31.609Z,100548.03
2023-05-14T18:42:01.317Z,100539.47
2023-05-14T18:44:32.736Z,100544.59
2023-05-14T18:47:02.231Z,100540.25
2023-05-14T18:49:31.460Z,100536.75
2023-05-14T18:52:01.028Z,100539.41
2023-05-14T18:54:30.825Z,100557.59
2023-05-14T18:57:37.280Z,100545.50
2023-05-14T19:00:10.619Z,100552.44
2023-05-14T19:05:20.135Z,100542.88
2023-05-14T19:07:49.866Z,100548.09
2023-05-14T19:10:19.611Z,100531.69
2023-05-14T19:13:03.093Z,100537.75
2023-05-14T19:15:34.590Z,100543.81
2023-05-14T19:18:04.343Z,100550.75
2023-05-14T19:20:33.922Z,100519.81
2023-05-14T19:23:09.272Z,100544.78
2023-05-14T19:25:39.097Z,100559.47
2023-05-14T19:28:08.645Z,100566.41
2023-05-14T19:30:39.981Z,100555.19
2023-05-14T19:33:14.485Z,100542.28
2023-05-14T19:35:44.396Z,100555.19
2023-05-14T19:38:29.346Z,100555.22
2023-05-14T19:41:04.001Z,100555.25
2023-05-14T19:43:33.777Z,100558.72
2023-05-14T19:46:06.366Z,100549.22
2023-05-14T19:48:36.169Z,100550.94
2023-05-14T19:51:05.679Z,100556.19
2023-05-14T19:53:35.470Z,100545.84
2023-05-14T19:56:04.931Z,100561.34
2023-05-14T19:58:34.431Z,100544.06
2023-05-14T20:01:06.022Z,100554.41
2023-05-14T20:03:40.517Z,100552.69
2023-05-14T20:06:10.496Z,100556.19
2023-05-14T20:08:42.339Z,100543.25
2023-05-14T20:11:22.130Z,100542.41
2023-05-14T20:13:51.505Z,100555.34
2023-05-14T20:16:47.141Z,100553.59
2023-05-14T20:19:16.862Z,100547.59
2023-05-14T20:24:50.673Z,100555.34
2023-05-14T20:27:19.996Z,100551.00
2023-05-14T20:29:56.373Z,100551.03
2023-05-14T20:32:27.743Z,100545.88
2023-05-14T20:35:12.182Z,100540.69
2023-05-14T20:37:41.759Z,100544.97
2023-05-14T20:40:12.714Z,100550.16
2023-05-14T20:42:55.498Z,100556.22
2023-05-14T20:45:25.066Z,100555.34
2023-05-14T20:47:57.671Z,100547.56
2023-05-14T20:50:28.037Z,100552.78
2023-05-14T20:52:57.659Z,100554.50
2023-05-14T20:55:27.424Z,100555.41
2023-05-14T20:57:57.081Z,100555.41
2023-05-14T21:00:26.504Z,100552.81
2023-05-14T21:03:04.290Z,100542.47
2023-05-14T21:05:34.637Z,100559.72
2023-05-14T21:08:03.836Z,100551.97
2023-05-14T21:10:33.250Z,100544.22
2023-05-14T21:13:02.538Z,100556.31
2023-05-14T21:15:37.071Z,100555.41
2023-05-14T21:18:08.391Z,100556.31
2023-05-14T21:20:37.785Z,100558.88
2023-05-14T21:23:07.164Z,100562.38
2023-05-14T21:25:36.946Z,100561.50
2023-05-14T21:30:42.086Z,100550.28
2023-05-14T21:33:13.496Z,100536.50
2023-05-14T21:35:49.008Z,100551.19
2023-05-14T21:38:18.823Z,100555.47
2023-05-14T21:40:48.101Z,100560.66
2023-05-14T21:43:18.073Z,100556.34
2023-05-14T21:45:48.055Z,100521.84
2023-05-14T21:48:19.430Z,100562.41
2023-05-14T21:50:49.074Z,100560.69
2023-05-14T21:53:18.514Z,100545.97
2023-05-14T21:55:49.502Z,100558.06
2023-05-14T21:58:24.253Z,100558.94
2023-05-14T22:00:53.712Z,100567.56
2023-05-14T22:03:25.189Z,100532.16
2023-05-14T22:05:59.600Z,100558.91
2023-05-14T22:08:30.776Z,100561.50
2023-05-14T22:11:00.470Z,100557.19
2023-05-14T22:13:29.735Z,100550.28
2023-05-14T22:16:09.116Z,100552.91
2023-05-14T22:18:43.850Z,100565.78
2023-05-14T22:21:19.034Z,100557.19
2023-05-14T22:23:50.138Z,100562.34
2023-05-14T22:26:21.134Z,100558.91
2023-05-14T22:28:57.263Z,100557.19
2023-05-14T22:31:26.594Z,100561.50
2023-05-14T22:33:57.876Z,100564.09
2023-05-14T22:36:27.327Z,100562.34
2023-05-14T22:38:56.612Z,100562.34
2023-05-14T22:41:31.517Z,100559.72
2023-05-14T22:44:00.721Z,100558.88
2023-05-14T22:46:30.227Z,100564.91
2023-05-14T22:49:03.791Z,100561.47
2023-05-14T22:51:36.097Z,100567.47
2023-05-14T22:54:10.890Z,100564.00
2023-05-14T22:56:40.304Z,100564.84
2023-05-14T22:59:09.801Z,100564.81
2023-05-14T23:01:39.242Z,100572.56
2023-05-14T23:06:46.034Z,100563.88
2023-05-14T23:09:15.273Z,100573.38
2023-05-14T23:11:44.735Z,100569.03
2023-05-14T23:14:14.111Z,100573.28
2023-05-14T23:16:43.597Z,100550.00
2023-05-14T23:19:21.346Z,100581.91
2023-05-14T23:21:50.790Z,100571.56
2023-05-14T23:24:20.060Z,100576.78
2023-05-14T23:32:07.124Z,100574.97
2023-05-14T23:34:44.103Z,100574.94
2023-05-14T23:37:13.721Z,100579.25
2023-05-14T23:39:43.022Z,100585.25
2023-05-14T23:42:12.406Z,100584.31
2023-05-14T23:44:42.464Z,100575.63
2023-05-14T23:47:12.070Z,100584.25
2023-05-14T23:49:43.485Z,100586.81
2023-05-14T23:52:13.225Z,100589.38
2023-05-14T23:54:42.577Z,100589.28
2023-05-14T23:57:14.516Z,100591.00
2023-05-14T23:59:48.268Z,100588.38
